sensor_id;sensor_type;location;lat;lon;timestamp;pressure;altitude;pressure_sealevel;temperature;humidity
25156;BME280;71253;51.496;7.606;2023-07-13T00:02:43;100056.94;;;16.10;64.08
25156;BME280;71253;51.496;7.606;2023-07-13T00:07:46;100063.94;;;16.08;63.57
25156;BME280;71253;51.496;7.606;2023-07-13T00:12:48;100066.88;;;15.93;64.47
25156;BME280;71253;51.496;7.606;2023-07-13T00:17:52;100061.78;;;15.87;63.43
25156;BME280;71253;51.496;7.606;2023-07-13T00:22:54;100074.06;;;15.82;63.75
25156;BME280;71253;51.496;7.606;2023-07-13T00:27:56;100071.63;;;15.74;63.35
25156;BME280;71253;51.496;7.606;2023-07-13T00:32:59;100072.44;;;15.76;63.43
25156;BME280;71253;51.496;7.606;2023-07-13T00:38:10;100068.41;;;15.61;64.35
25156;BME280;71253;51.496;7.606;2023-07-13T00:43:22;100070.31;;;15.51;64.04
25156;BME280;71253;51.496;7.606;2023-07-13T00:48:27;100075.13;;;15.26;64.84
25156;BME280;71253;51.496;7.606;2023-07-13T00:53:32;100075.81;;;14.90;65.73
25156;BME280;71253;51.496;7.606;2023-07-13T00:58:35;100074.06;;;14.89;65.43
25156;BME280;71253;51.496;7.606;2023-07-13T01:03:37;100066.09;;;14.98;65.34
25156;BME280;71253;51.496;7.606;2023-07-13T01:08:39;100058.59;;;14.80;65.80
25156;BME280;71253;51.496;7.606;2023-07-13T01:13:41;100058.66;;;14.77;66.60
25156;BME280;71253;51.496;7.606;2023-07-13T01:18:43;100069.16;;;14.70;66.89
25156;BME280;71253;51.496;7.606;2023-07-13T01:23:45;100063.31;;;14.58;67.01
25156;BME280;71253;51.496;7.606;2023-07-13T01:28:46;100067.81;;;14.43;68.28
25156;BME280;71253;51.496;7.606;2023-07-13T01:33:48;100065.13;;;14.51;67.39
25156;BME280;71253;51.496;7.606;2023-07-13T01:38:50;100070.31;;;14.54;67.01
25156;BME280;71253;51.496;7.606;2023-07-13T01:43:52;100059.88;;;14.54;67.07
25156;BME280;71253;51.496;7.606;2023-07-13T01:48:53;100067.66;;;14.57;67.10
25156;BME280;71253;51.496;7.606;2023-07-13T01:53:56;100066.09;;;14.44;67.94
25156;BME280;71253;51.496;7.606;2023-07-13T01:58:58;100073.00;;;14.46;67.50
25156;BME280;71253;51.496;7.606;2023-07-13T02:04:00;100066.91;;;14.46;67.43
25156;BME280;71253;51.496;7.606;2023-07-13T02:09:04;100077.50;;;14.34;67.58
25156;BME280;71253;51.496;7.606;2023-07-13T02:14:06;100073.41;;;14.17;68.51
25156;BME280;71253;51.496;7.606;2023-07-13T02:19:11;100078.59;;;14.20;68.30
25156;BME280;71253;51.496;7.606;2023-07-13T02:24:12;100074.22;;;14.23;68.13
25156;BME280;71253;51.496;7.606;2023-07-13T02:29:16;100086.16;;;14.37;67.43
25156;BME280;71253;51.496;7.606;2023-07-13T02:34:19;100074.13;;;14.30;68.04
25156;BME280;71253;51.496;7.606;2023-07-13T02:39:21;100075.06;;;14.23;68.17
25156;BME280;71253;51.496;7.606;2023-07-13T02:44:23;100072.59;;;14.15;68.35
25156;BME280;71253;51.496;7.606;2023-07-13T02:49:25;100077.88;;;14.08;68.63
25156;BME280;71253;51.496;7.606;2023-07-13T02:54:27;100068.38;;;14.05;69.14
25156;BME280;71253;51.496;7.606;2023-07-13T02:59:28;100074.53;;;14.00;69.30
25156;BME280;71253;51.496;7.606;2023-07-13T03:04:30;100082.31;;;14.01;69.24
25156;BME280;71253;51.496;7.606;2023-07-13T03:09:34;100078.84;;;14.01;69.66
25156;BME280;71253;51.496;7.606;2023-07-13T03:14:39;100081.56;;;13.91;69.70
25156;BME280;71253;51.496;7.606;2023-07-13T03:19:42;100085.81;;;13.97;69.37
25156;BME280;71253;51.496;7.606;2023-07-13T03:24:46;100084.22;;;13.88;70.10
25156;BME280;71253;51.496;7.606;2023-07-13T03:29:49;100096.44;;;13.82;70.36
25156;BME280;71253;51.496;7.606;2023-07-13T03:34:52;100101.84;;;13.63;71.09
25156;BME280;71253;51.496;7.606;2023-07-13T03:39:54;100084.50;;;13.64;71.45
25156;BME280;71253;51.496;7.606;2023-07-13T03:44:56;100107.09;;;13.59;71.83
25156;BME280;71253;51.496;7.606;2023-07-13T03:49:59;100112.25;;;13.63;71.58
25156;BME280;71253;51.496;7.606;2023-07-13T03:55:02;100113.91;;;13.71;71.88
25156;BME280;71253;51.496;7.606;2023-07-13T04:00:05;100110.50;;;13.65;72.01
25156;BME280;71253;51.496;7.606;2023-07-13T04:05:16;100119.94;;;13.73;71.60
25156;BME280;71253;51.496;7.606;2023-07-13T04:10:20;100117.25;;;13.82;71.54
25156;BME280;71253;51.496;7.606;2023-07-13T04:15:22;100124.97;;;13.88;71.40
25156;BME280;71253;51.496;7.606;2023-07-13T04:20:24;100129.13;;;14.03;71.27
25156;BME280;71253;51.496;7.606;2023-07-13T04:25:26;100129.84;;;14.12;71.10
25156;BME280;71253;51.496;7.606;2023-07-13T04:30:30;100131.44;;;14.24;70.55
25156;BME280;71253;51.496;7.606;2023-07-13T04:35:31;100133.84;;;14.38;70.76
25156;BME280;71253;51.496;7.606;2023-07-13T04:40:33;100129.38;;;14.49;70.55
25156;BME280;71253;51.496;7.606;2023-07-13T04:45:35;100142.28;;;14.58;70.79
25156;BME280;71253;51.496;7.606;2023-07-13T04:50:38;100132.56;;;14.69;71.34
25156;BME280;71253;51.496;7.606;2023-07-13T04:55:40;100134.94;;;14.83;70.18
25156;BME280;71253;51.496;7.606;2023-07-13T05:00:46;100139.09;;;14.95;70.29
25156;BME280;71253;51.496;7.606;2023-07-13T05:06:07;100140.69;;;15.04;70.27
25156;BME280;71253;51.496;7.606;2023-07-13T05:11:10;100140.50;;;15.14;70.00
25156;BME280;71253;51.496;7.606;2023-07-13T05:16:15;100139.31;;;15.34;69.58
25156;BME280;71253;51.496;7.606;2023-07-13T05:21:19;100145.97;;;15.50;69.68
25156;BME280;71253;51.496;7.606;2023-07-13T05:26:20;100147.44;;;15.66;68.55
25156;BME280;71253;51.496;7.606;2023-07-13T05:31:24;100145.69;;;16.09;67.54
25156;BME280;71253;51.496;7.606;2023-07-13T05:36:26;100158.78;;;16.49;65.81
25156;BME280;71253;51.496;7.606;2023-07-13T05:41:28;100146.94;;;16.73;65.17
25156;BME280;71253;51.496;7.606;2023-07-13T05:46:31;100161.28;;;16.91;64.33
25156;BME280;71253;51.496;7.606;2023-07-13T05:51:33;100154.59;;;16.80;64.27
25156;BME280;71253;51.496;7.606;2023-07-13T05:56:35;100180.38;;;16.94;64.44
25156;BME280;71253;51.496;7.606;2023-07-13T06:01:38;100179.59;;;17.26;64.15
25156;BME280;71253;51.496;7.606;2023-07-13T06:06:40;100173.03;;;17.46;62.31
25156;BME280;71253;51.496;7.606;2023-07-13T06:11:43;100181.16;;;17.33;63.21
25156;BME280;71253;51.496;7.606;2023-07-13T06:16:45;100194.31;;;17.30;63.70
25156;BME280;71253;51.496;7.606;2023-07-13T06:21:47;100194.34;;;17.63;62.97
25156;BME280;71253;51.496;7.606;2023-07-13T06:26:52;100199.59;;;18.27;62.19
25156;BME280;71253;51.496;7.606;2023-07-13T06:31:54;100203.31;;;18.79;60.53
25156;BME280;71253;51.496;7.606;2023-07-13T06:36:56;100209.41;;;18.79;59.54
25156;BME280;71253;51.496;7.606;2023-07-13T06:42:12;100225.44;;;18.39;61.63
25156;BME280;71253;51.496;7.606;2023-07-13T06:47:15;100219.22;;;19.54;58.20
25156;BME280;71253;51.496;7.606;2023-07-13T06:52:32;100225.69;;;19.70;57.88
25156;BME280;71253;51.496;7.606;2023-07-13T06:57:39;100220.31;;;19.73;57.65
25156;BME280;71253;51.496;7.606;2023-07-13T07:02:41;100215.91;;;20.23;57.07
25156;BME280;71253;51.496;7.606;2023-07-13T07:07:51;100227.28;;;20.24;56.33
25156;BME280;71253;51.496;7.606;2023-07-13T07:12:55;100228.94;;;22.00;51.87
25156;BME280;71253;51.496;7.606;2023-07-13T07:17:59;100225.56;;;21.14;52.85
25156;BME280;71253;51.496;7.606;2023-07-13T07:23:02;100225.41;;;21.81;52.13
25156;BME280;71253;51.496;7.606;2023-07-13T07:28:04;100223.63;;;22.79;48.63
25156;BME280;71253;51.496;7.606;2023-07-13T07:33:08;100223.47;;;22.44;49.80
25156;BME280;71253;51.496;7.606;2023-07-13T07:38:10;100224.34;;;23.55;47.46
25156;BME280;71253;51.496;7.606;2023-07-13T07:43:17;100225.00;;;23.41;46.54
25156;BME280;71253;51.496;7.606;2023-07-13T07:48:23;100201.41;;;22.47;49.12
25156;BME280;71253;51.496;7.606;2023-07-13T07:53:27;100223.28;;;22.30;49.60
25156;BME280;71253;51.496;7.606;2023-07-13T07:58:31;100221.91;;;22.78;47.48
25156;BME280;71253;51.496;7.606;2023-07-13T08:03:36;100228.75;;;22.25;49.97
25156;BME280;71253;51.496;7.606;2023-07-13T08:08:40;100223.94;;;23.28;47.20
25156;BME280;71253;51.496;7.606;2023-07-13T08:13:42;100227.13;;;21.82;49.91
25156;BME280;71253;51.496;7.606;2023-07-13T08:18:46;100220.63;;;22.30;48.61
25156;BME280;71253;51.496;7.606;2023-07-13T08:23:51;100224.34;;;22.05;49.97
25156;BME280;71253;51.496;7.606;2023-07-13T08:28:55;100225.97;;;20.11;55.00
25156;BME280;71253;51.496;7.606;2023-07-13T08:33:58;100216.41;;;21.87;51.72
25156;BME280;71253;51.496;7.606;2023-07-13T08:39:01;100222.72;;;21.62;51.72
25156;BME280;71253;51.496;7.606;2023-07-13T08:44:11;100215.25;;;23.78;45.92
25156;BME280;71253;51.496;7.606;2023-07-13T08:49:21;100224.06;;;24.11;44.71
25156;BME280;71253;51.496;7.606;2023-07-13T08:59:32;100205.66;;;22.87;47.96
25156;BME280;71253;51.496;7.606;2023-07-13T09:04:41;100202.06;;;24.44;43.83
25156;BME280;71253;51.496;7.606;2023-07-13T09:14:59;100215.69;;;25.00;44.25
25156;BME280;71253;51.496;7.606;2023-07-13T09:25:35;100217.53;;;26.04;40.22
25156;BME280;71253;51.496;7.606;2023-07-13T09:30:45;100218.78;;;25.84;40.41
25156;BME280;71253;51.496;7.606;2023-07-13T09:35:49;100226.53;;;26.58;38.88
25156;BME280;71253;51.496;7.606;2023-07-13T09:46:22;100217.47;;;24.99;41.96
25156;BME280;71253;51.496;7.606;2023-07-13T09:51:27;100242.66;;;26.96;38.80
25156;BME280;71253;51.496;7.606;2023-07-13T09:56:29;100220.00;;;28.36;35.11
25156;BME280;71253;51.496;7.606;2023-07-13T10:01:40;100234.06;;;26.93;39.37
25156;BME280;71253;51.496;7.606;2023-07-13T10:06:46;100231.47;;;28.11;34.47
25156;BME280;71253;51.496;7.606;2023-07-13T10:11:52;100232.88;;;25.24;41.37
25156;BME280;71253;51.496;7.606;2023-07-13T10:17:02;100218.81;;;28.14;35.08
25156;BME280;71253;51.496;7.606;2023-07-13T10:22:25;100225.13;;;26.94;37.41
25156;BME280;71253;51.496;7.606;2023-07-13T10:27:35;100238.09;;;27.52;37.70
25156;BME280;71253;51.496;7.606;2023-07-13T10:32:44;100233.72;;;23.60;43.53
25156;BME280;71253;51.496;7.606;2023-07-13T10:42:54;100237.88;;;22.18;46.05
25156;BME280;71253;51.496;7.606;2023-07-13T10:47:58;100249.31;;;21.12;50.80
25156;BME280;71253;51.496;7.606;2023-07-13T10:53:17;100246.19;;;21.02;51.64
25156;BME280;71253;51.496;7.606;2023-07-13T10:58:22;100243.97;;;21.58;50.14
25156;BME280;71253;51.496;7.606;2023-07-13T11:03:28;100246.69;;;21.97;48.02
25156;BME280;71253;51.496;7.606;2023-07-13T11:08:34;100248.47;;;25.59;40.92
25156;BME280;71253;51.496;7.606;2023-07-13T11:18:51;100257.31;;;24.16;42.40
25156;BME280;71253;51.496;7.606;2023-07-13T11:24:17;100250.09;;;22.96;45.56
25156;BME280;71253;51.496;7.606;2023-07-13T11:29:37;100253.38;;;21.63;49.57
25156;BME280;71253;51.496;7.606;2023-07-13T11:34:44;100255.44;;;22.57;47.36
25156;BME280;71253;51.496;7.606;2023-07-13T11:39:54;100256.19;;;23.86;45.80
25156;BME280;71253;51.496;7.606;2023-07-13T11:44:58;100254.50;;;24.52;43.09
25156;BME280;71253;51.496;7.606;2023-07-13T11:50:16;100250.84;;;25.79;42.00
25156;BME280;71253;51.496;7.606;2023-07-13T11:55:21;100243.09;;;27.84;36.37
25156;BME280;71253;51.496;7.606;2023-07-13T12:00:28;100256.00;;;27.63;35.41
25156;BME280;71253;51.496;7.606;2023-07-13T12:05:31;100249.16;;;26.64;37.41
25156;BME280;71253;51.496;7.606;2023-07-13T12:10:35;100240.63;;;27.81;35.17
25156;BME280;71253;51.496;7.606;2023-07-13T12:15:39;100240.31;;;28.11;35.00
25156;BME280;71253;51.496;7.606;2023-07-13T12:20:50;100237.75;;;25.46;40.27
25156;BME280;71253;51.496;7.606;2023-07-13T12:25:53;100245.69;;;27.32;36.09
25156;BME280;71253;51.496;7.606;2023-07-13T12:30:58;100232.31;;;28.49;34.00
25156;BME280;71253;51.496;7.606;2023-07-13T12:36:04;100240.34;;;27.59;35.13
25156;BME280;71253;51.496;7.606;2023-07-13T12:41:11;100232.34;;;28.73;31.23
25156;BME280;71253;51.496;7.606;2023-07-13T12:46:18;100224.41;;;27.59;34.63
25156;BME280;71253;51.496;7.606;2023-07-13T12:51:22;100238.19;;;29.15;33.24
25156;BME280;71253;51.496;7.606;2023-07-13T12:56:30;100233.75;;;26.56;34.65
25156;BME280;71253;51.496;7.606;2023-07-13T13:01:35;100236.91;;;27.44;33.67
25156;BME280;71253;51.496;7.606;2023-07-13T13:06:37;100221.47;;;29.95;30.46
25156;BME280;71253;51.496;7.606;2023-07-13T13:11:40;100232.53;;;30.69;28.42
25156;BME280;71253;51.496;7.606;2023-07-13T13:16:50;100228.00;;;29.09;30.36
25156;BME280;71253;51.496;7.606;2023-07-13T13:21:54;100222.13;;;27.80;33.16
25156;BME280;71253;51.496;7.606;2023-07-13T13:26:59;100236.25;;;28.80;32.91
25156;BME280;71253;51.496;7.606;2023-07-13T13:32:00;100244.81;;;28.73;33.87
25156;BME280;71253;51.496;7.606;2023-07-13T13:37:19;100241.81;;;28.28;32.33
25156;BME280;71253;51.496;7.606;2023-07-13T13:42:23;100250.94;;;24.84;37.94
25156;BME280;71253;51.496;7.606;2023-07-13T13:47:31;100247.38;;;25.17;38.63
25156;BME280;71253;51.496;7.606;2023-07-13T13:52:33;100252.31;;;23.05;43.21
25156;BME280;71253;51.496;7.606;2023-07-13T13:57:35;100299.09;;;22.03;48.89
25156;BME280;71253;51.496;7.606;2023-07-13T14:02:37;100365.63;;;19.72;63.87
25156;BME280;71253;51.496;7.606;2023-07-13T14:07:41;100361.25;;;17.49;75.60
25156;BME280;71253;51.496;7.606;2023-07-13T14:12:45;100358.06;;;16.96;76.57
25156;BME280;71253;51.496;7.606;2023-07-13T14:17:50;100356.22;;;17.02;79.15
25156;BME280;71253;51.496;7.606;2023-07-13T14:22:52;100356.59;;;17.24;77.30
25156;BME280;71253;51.496;7.606;2023-07-13T14:27:58;100341.81;;;17.96;74.47
25156;BME280;71253;51.496;7.606;2023-07-13T14:33:00;100341.47;;;19.33;73.57
25156;BME280;71253;51.496;7.606;2023-07-13T14:38:02;100339.78;;;21.08;65.84
25156;BME280;71253;51.496;7.606;2023-07-13T14:43:04;100335.66;;;22.51;60.09
25156;BME280;71253;51.496;7.606;2023-07-13T14:48:20;100330.78;;;23.92;56.56
25156;BME280;71253;51.496;7.606;2023-07-13T14:53:26;100328.19;;;23.55;54.98
25156;BME280;71253;51.496;7.606;2023-07-13T14:58:28;100326.59;;;23.15;54.56
25156;BME280;71253;51.496;7.606;2023-07-13T15:03:34;100330.34;;;21.90;57.66
25156;BME280;71253;51.496;7.606;2023-07-13T15:08:36;100355.47;;;20.39;61.36
25156;BME280;71253;51.496;7.606;2023-07-13T15:13:40;100387.09;;;18.99;71.51
25156;BME280;71253;51.496;7.606;2023-07-13T15:18:43;100372.56;;;17.88;75.30
25156;BME280;71253;51.496;7.606;2023-07-13T15:23:46;100365.94;;;17.72;77.63
25156;BME280;71253;51.496;7.606;2023-07-13T15:28:48;100361.38;;;18.17;78.26
25156;BME280;71253;51.496;7.606;2023-07-13T15:33:51;100353.19;;;18.91;74.79
25156;BME280;71253;51.496;7.606;2023-07-13T15:38:56;100351.22;;;20.35;69.82
25156;BME280;71253;51.496;7.606;2023-07-13T15:43:59;100337.16;;;20.11;67.22
25156;BME280;71253;51.496;7.606;2023-07-13T15:49:09;100326.09;;;22.49;63.48
25156;BME280;71253;51.496;7.606;2023-07-13T15:54:13;100332.25;;;23.80;53.97
25156;BME280;71253;51.496;7.606;2023-07-13T15:59:16;100330.53;;;24.13;51.59
25156;BME280;71253;51.496;7.606;2023-07-13T16:04:19;100318.47;;;23.01;58.47
25156;BME280;71253;51.496;7.606;2023-07-13T16:09:22;100321.81;;;21.63;61.25
25156;BME280;71253;51.496;7.606;2023-07-13T16:14:27;100327.75;;;20.79;64.85
25156;BME280;71253;51.496;7.606;2023-07-13T16:19:31;100325.41;;;20.23;64.06
25156;BME280;71253;51.496;7.606;2023-07-13T16:24:34;100339.69;;;19.63;70.75
25156;BME280;71253;51.496;7.606;2023-07-13T16:29:38;100351.56;;;19.17;71.78
25156;BME280;71253;51.496;7.606;2023-07-13T16:34:42;100378.56;;;18.58;75.83
25156;BME280;71253;51.496;7.606;2023-07-13T16:39:48;100400.59;;;17.46;75.52
25156;BME280;71253;51.496;7.606;2023-07-13T16:44:50;100421.50;;;16.57;85.03
25156;BME280;71253;51.496;7.606;2023-07-13T16:49:52;100396.75;;;16.30;87.31
25156;BME280;71253;51.496;7.606;2023-07-13T16:54:56;100420.06;;;16.43;88.60
25156;BME280;71253;51.496;7.606;2023-07-13T17:00:06;100419.28;;;16.36;89.04
25156;BME280;71253;51.496;7.606;2023-07-13T17:05:15;100410.44;;;16.45;89.30
25156;BME280;71253;51.496;7.606;2023-07-13T17:10:19;100401.97;;;16.30;88.32
25156;BME280;71253;51.496;7.606;2023-07-13T17:15:23;100402.88;;;16.29;87.36
25156;BME280;71253;51.496;7.606;2023-07-13T17:20:36;100395.03;;;16.31;87.92
25156;BME280;71253;51.496;7.606;2023-07-13T17:25:42;100391.50;;;16.34;87.28
25156;BME280;71253;51.496;7.606;2023-07-13T17:30:45;100388.91;;;16.32;86.62
25156;BME280;71253;51.496;7.606;2023-07-13T17:35:52;100382.53;;;16.47;87.40
25156;BME280;71253;51.496;7.606;2023-07-13T17:40:56;100375.47;;;16.52;86.86
25156;BME280;71253;51.496;7.606;2023-07-13T17:45:59;100378.78;;;16.62;86.32
25156;BME280;71253;51.496;7.606;2023-07-13T17:51:00;100372.47;;;16.73;86.30
25156;BME280;71253;51.496;7.606;2023-07-13T17:56:06;100387.97;;;16.82;84.54
25156;BME280;71253;51.496;7.606;2023-07-13T18:01:13;100377.88;;;16.64;85.32
25156;BME280;71253;51.496;7.606;2023-07-13T18:06:20;100383.09;;;16.64;86.39
25156;BME280;71253;51.496;7.606;2023-07-13T18:11:26;100384.47;;;16.36;86.20
25156;BME280;71253;51.496;7.606;2023-07-13T18:16:29;100382.06;;;16.25;86.25
25156;BME280;71253;51.496;7.606;2023-07-13T18:21:33;100396.63;;;16.38;87.36
25156;BME280;71253;51.496;7.606;2023-07-13T18:26:36;100386.97;;;16.43;85.97
25156;BME280;71253;51.496;7.606;2023-07-13T18:31:38;100382.72;;;16.38;85.64
25156;BME280;71253;51.496;7.606;2023-07-13T18:36:42;100376.13;;;16.17;87.43
25156;BME280;71253;51.496;7.606;2023-07-13T18:41:47;100376.44;;;16.48;85.43
25156;BME280;71253;51.496;7.606;2023-07-13T18:46:49;100378.13;;;16.50;86.19
25156;BME280;71253;51.496;7.606;2023-07-13T18:51:51;100384.34;;;16.42;86.98
25156;BME280;71253;51.496;7.606;2023-07-13T18:56:53;100379.44;;;16.25;87.32
25156;BME280;71253;51.496;7.606;2023-07-13T19:01:55;100385.00;;;16.07;87.78
25156;BME280;71253;51.496;7.606;2023-07-13T19:06:59;100386.91;;;15.97;88.01
25156;BME280;71253;51.496;7.606;2023-07-13T19:12:02;100387.06;;;15.88;88.70
25156;BME280;71253;51.496;7.606;2023-07-13T19:17:07;100389.84;;;15.77;88.97
25156;BME280;71253;51.496;7.606;2023-07-13T19:22:17;100399.63;;;15.60;89.45
25156;BME280;71253;51.496;7.606;2023-07-13T19:27:19;100398.78;;;15.58;89.09
25156;BME280;71253;51.496;7.606;2023-07-13T19:32:23;100395.53;;;15.42;90.10
25156;BME280;71253;51.496;7.606;2023-07-13T19:37:25;100402.50;;;15.41;90.22
25156;BME280;71253;51.496;7.606;2023-07-13T19:42:29;100408.84;;;15.20;90.47
25156;BME280;71253;51.496;7.606;2023-07-13T19:47:35;100413.50;;;14.97;91.79
25156;BME280;71253;51.496;7.606;2023-07-13T19:52:42;100414.59;;;14.79;92.31
25156;BME280;71253;51.496;7.606;2023-07-13T19:57:45;100418.06;;;14.77;92.83
25156;BME280;71253;51.496;7.606;2023-07-13T20:02:48;100428.44;;;14.83;92.92
25156;BME280;71253;51.496;7.606;2023-07-13T20:07:56;100427.63;;;14.76;92.61
25156;BME280;71253;51.496;7.606;2023-07-13T20:13:00;100439.00;;;14.67;92.44
25156;BME280;71253;51.496;7.606;2023-07-13T20:18:03;100438.25;;;14.56;92.88
25156;BME280;71253;51.496;7.606;2023-07-13T20:23:18;100441.91;;;14.34;93.11
25156;BME280;71253;51.496;7.606;2023-07-13T20:28:20;100457.69;;;14.15;93.09
25156;BME280;71253;51.496;7.606;2023-07-13T20:33:24;100460.34;;;14.06;93.81
25156;BME280;71253;51.496;7.606;2023-07-13T20:38:27;100465.56;;;14.06;94.30
25156;BME280;71253;51.496;7.606;2023-07-13T20:43:30;100455.19;;;14.03;94.15
25156;BME280;71253;51.496;7.606;2023-07-13T20:48:39;100457.69;;;14.15;94.43
25156;BME280;71253;51.496;7.606;2023-07-13T20:53:45;100459.34;;;14.26;94.07
25156;BME280;71253;51.496;7.606;2023-07-13T20:58:48;100456.75;;;14.23;94.15
25156;BME280;71253;51.496;7.606;2023-07-13T21:03:56;100449.59;;;14.51;92.94
25156;BME280;71253;51.496;7.606;2023-07-13T21:08:58;100453.94;;;14.50;93.22
25156;BME280;71253;51.496;7.606;2023-07-13T21:14:04;100460.91;;;14.48;92.71
25156;BME280;71253;51.496;7.606;2023-07-13T21:19:11;100458.28;;;14.53;92.47
25156;BME280;71253;51.496;7.606;2023-07-13T21:24:13;100458.97;;;14.70;91.97
25156;BME280;71253;51.496;7.606;2023-07-13T21:29:16;100467.75;;;14.57;91.81
25156;BME280;71253;51.496;7.606;2023-07-13T21:34:19;100465.22;;;14.51;91.60
25156;BME280;71253;51.496;7.606;2023-07-13T21:39:25;100466.81;;;14.62;90.57
25156;BME280;71253;51.496;7.606;2023-07-13T21:44:29;100466.81;;;14.62;89.19
25156;BME280;71253;51.496;7.606;2023-07-13T21:49:35;100460.75;;;14.62;90.54
25156;BME280;71253;51.496;7.606;2023-07-13T21:54:37;100466.81;;;14.62;89.43
25156;BME280;71253;51.496;7.606;2023-07-13T21:59:39;100464.13;;;14.75;90.14
25156;BME280;71253;51.496;7.606;2023-07-13T22:04:41;100464.22;;;14.65;89.70
25156;BME280;71253;51.496;7.606;2023-07-13T22:09:44;100462.38;;;14.75;88.83
25156;BME280;71253;51.496;7.606;2023-07-13T22:14:47;100457.97;;;14.79;88.74
25156;BME280;71253;51.496;7.606;2023-07-13T22:19:49;100457.13;;;14.78;88.78
25156;BME280;71253;51.496;7.606;2023-07-13T22:24:52;100459.72;;;14.80;88.23
25156;BME280;71253;51.496;7.606;2023-07-13T22:29:55;100462.41;;;14.72;88.26
25156;BME280;71253;51.496;7.606;2023-07-13T22:34:57;100453.72;;;14.75;87.37
25156;BME280;71253;51.496;7.606;2023-07-13T22:39:59;100460.56;;;14.85;85.35
25156;BME280;71253;51.496;7.606;2023-07-13T22:45:01;100450.16;;;14.79;86.02
25156;BME280;71253;51.496;7.606;2023-07-13T22:50:17;100448.66;;;14.56;86.42
25156;BME280;71253;51.496;7.606;2023-07-13T22:55:19;100453.09;;;14.48;86.63
25156;BME280;71253;51.496;7.606;2023-07-13T23:00:20;100448.88;;;14.32;86.75
25156;BME280;71253;51.496;7.606;2023-07-13T23:05:22;100456.75;;;14.23;87.14
25156;BME280;71253;51.496;7.606;2023-07-13T23:10:24;100449.94;;;14.06;88.45
25156;BME280;71253;51.496;7.606;2023-07-13T23:15:27;100441.34;;;13.98;88.40
25156;BME280;71253;51.496;7.606;2023-07-13T23:20:31;100446.63;;;13.86;88.59
25156;BME280;71253;51.496;7.606;2023-07-13T23:25:33;100450.13;;;13.79;88.98
25156;BME280;71253;51.496;7.606;2023-07-13T23:30:36;100451.94;;;13.71;89.31
25156;BME280;71253;51.496;7.606;2023-07-13T23:35:39;100451.03;;;13.75;88.98
25156;BME280;71253;51.496;7.606;2023-07-13T23:40:41;100449.34;;;13.67;89.24
25156;BME280;71253;51.496;7.606;2023-07-13T23:45:43;100445.94;;;13.53;89.62
25156;BME280;71253;51.496;7.606;2023-07-13T23:50:53;100449.50;;;13.40;90.35
25156;BME280;71253;51.496;7.606;2023-07-13T23:55:57;100444.34;;;13.31;90.45
